Time;durP1;ratioP1;P1;durP2;ratioP2;P2;SDS_P1;SDS_P2;PMS_P1;PMS_P2;Temp;Humidity;BMP_temperature;BMP_pressure;BME280_temperature;BME280_humidity;BME280_pressure;Samples;Min_cycle;Max_cycle;Signal;HPM_P1;HPM_P2
2021/12/28 00:02:25;;;;;;;37.78;24.58;;;;;;;;;;5080113;28;20085;-67
2021/12/28 00:04:51;;;;;;;40.35;26.00;;;;;;;;;;5075920;28;20040;-66
2021/12/28 00:07:17;;;;;;;39.05;25.15;;;;;;;;;;5095169;28;20546;-66
2021/12/28 00:09:44;;;;;;;48.50;28.00;;;;;;;;;;5065873;28;20035;-66
2021/12/28 00:12:10;;;;;;;47.42;27.52;;;;;;;;;;5096539;28;20074;-66
2021/12/28 00:14:36;;;;;;;45.53;28.73;;;;;;;;;;5097285;28;20047;-66
2021/12/28 00:19:48;;;;;;;39.47;25.92;;;;;;;;;;5092878;28;20048;-66
2021/12/28 00:22:14;;;;;;;44.42;28.35;;;;;;;;;;5076798;28;20036;-66
2021/12/28 00:24:40;;;;;;;41.65;27.70;;;;;;;;;;5083516;28;20039;-67
2021/12/28 00:27:06;;;;;;;40.60;26.60;;;;;;;;;;5096603;28;20476;-67
2021/12/28 00:29:32;;;;;;;45.17;28.88;;;;;;;;;;5096625;28;20052;-66
2021/12/28 00:31:58;;;;;;;50.30;30.25;;;;;;;;;;5096551;28;20177;-67
2021/12/28 00:34:24;;;;;;;40.60;27.45;;;;;;;;;;5095735;28;20100;-66
2021/12/28 00:36:50;;;;;;;50.08;30.30;;;;;;;;;;5097058;28;20083;-67
2021/12/28 00:39:16;;;;;;;55.92;33.25;;;;;;;;;;5096684;28;20553;-66
2021/12/28 00:41:42;;;;;;;53.33;32.28;;;;;;;;;;5096087;28;20077;-67
2021/12/28 00:44:08;;;;;;;50.30;30.75;;;;;;;;;;5078513;28;20122;-67
2021/12/28 00:46:34;;;;;;;54.13;32.33;;;;;;;;;;5076004;28;20536;-67
2021/12/28 00:49:01;;;;;;;51.25;32.95;;;;;;;;;;5076288;28;20040;-67
2021/12/28 00:51:29;;;;;;;48.00;32.42;;;;;;;;;;5076406;28;20093;-66
2021/12/28 00:53:57;;;;;;;65.13;36.58;;;;;;;;;;5075552;28;20058;-67
2021/12/28 00:56:25;;;;;;;61.67;34.55;;;;;;;;;;5076296;28;20051;-67
2021/12/28 00:58:51;;;;;;;63.83;35.95;;;;;;;;;;5080801;28;20079;-67
2021/12/28 01:01:17;;;;;;;59.75;36.05;;;;;;;;;;5094081;28;20511;-67
2021/12/28 01:03:43;;;;;;;66.80;38.05;;;5.60;99.90;;;;;;5096482;28;20052;-67
2021/12/28 01:06:08;;;;;;;78.03;41.05;;;5.70;99.90;;;;;;5114729;28;20031;-67
2021/12/28 01:08:34;;;;;;;62.65;36.10;;;5.70;99.90;;;;;;5095568;28;20044;-67
2021/12/28 01:11:00;;;;;;;74.43;40.28;;;5.70;99.90;;;;;;5096193;28;20086;-67
2021/12/28 01:13:26;;;;;;;64.47;38.60;;;;;;;;;;5079365;28;20047;-67
2021/12/28 01:15:53;;;;;;;88.78;43.63;;;;;;;;;;5094258;28;20492;-67
2021/12/28 01:18:19;;;;;;;72.43;40.42;;;;;;;;;;5096191;28;20130;-67
2021/12/28 01:20:45;;;;;;;75.93;42.63;;;;;;;;;;5096455;28;20502;-67
2021/12/28 01:23:12;;;;;;;98.68;47.30;;;;;;;;;;5095182;28;20369;-67
2021/12/28 01:25:38;;;;;;;98.10;46.88;;;;;;;;;;5096348;28;20032;-67
2021/12/28 01:28:05;;;;;;;93.82;48.10;;;;;;;;;;5095899;28;20051;-67
2021/12/28 01:30:32;;;;;;;74.03;41.13;;;;;;;;;;5086623;28;20059;-67
2021/12/28 01:32:59;;;;;;;104.75;51.25;;;;;;;;;;5095701;28;20044;-67
2021/12/28 01:35:26;;;;;;;94.97;49.85;;;5.80;99.90;;;;;;5095805;28;20058;-67
2021/12/28 01:37:52;;;;;;;108.03;51.40;;;5.70;99.90;;;;;;5083390;28;20048;-67
2021/12/28 01:40:22;;;;;;;93.63;46.65;;;5.80;99.90;;;;;;5092379;28;20370;-67
2021/12/28 01:42:58;;;;;;;111.13;50.45;;;5.70;99.90;;;;;;5074484;28;20036;-67
2021/12/28 01:46:00;;;;;;;102.53;51.40;;;5.40;99.90;;;;;;5079442;28;20039;-67
2021/12/28 01:48:35;;;;;;;98.05;50.03;;;5.70;99.90;;;;;;5057064;28;20055;-67
2021/12/28 01:51:03;;;;;;;;;;;5.90;99.90;;;;;;5095403;28;20044;-67
2021/12/28 01:53:30;;;;;;;107.07;51.25;;;5.70;99.90;;;;;;5095244;28;20428;-67
2021/12/28 01:56:00;;;;;;;104.57;53.58;;;5.80;99.90;;;;;;5094941;28;20115;-67
2021/12/28 01:58:26;;;;;;;118.25;55.95;;;5.80;99.90;;;;;;5094273;28;20118;-67
2021/12/28 02:00:54;;;;;;;102.95;52.38;;;5.80;99.90;;;;;;5094301;28;20130;-67
2021/12/28 02:03:26;;;;;;;136.32;57.90;;;5.80;99.90;;;;;;5095033;28;20043;-66
2021/12/28 02:05:52;;;;;;;129.55;57.47;;;;;;;;;;5094105;28;20541;-67
2021/12/28 02:08:18;;;;;;;168.98;65.57;;;;;;;;;;5095162;28;20148;-67
2021/12/28 02:10:46;;;;;;;155.13;66.90;;;6.00;99.90;;;;;;5095581;28;20051;-67
2021/12/28 02:13:36;;;;;;;164.55;69.15;;;5.90;99.90;;;;;;5094420;28;20047;-67
2021/12/28 02:16:02;;;;;;;200.60;72.85;;;6.00;99.90;;;;;;5058296;28;20070;-67
2021/12/28 02:18:30;;;;;;;157.90;66.18;;;5.80;99.90;;;;;;5091903;28;20500;-67
2021/12/28 02:20:57;;;;;;;181.45;72.55;;;6.20;99.90;;;;;;5079072;28;20553;-67
2021/12/28 02:23:23;;;;;;;172.30;68.45;;;7.50;99.90;;;;;;5094676;28;20048;-67
2021/12/28 02:25:49;;;;;;;169.25;69.07;;;6.10;99.90;;;;;;5077252;28;20040;-66
2021/12/28 02:28:16;;;;;;;248.00;83.45;;;6.50;99.90;;;;;;5093412;28;20047;-67
2021/12/28 02:30:47;;;;;;;151.85;64.65;;;6.30;99.90;;;;;;5074326;28;20060;-66
2021/12/28 02:33:13;;;;;;;127.88;55.25;;;6.00;99.90;;;;;;5074011;28;20094;-66
2021/12/28 02:35:40;;;;;;;132.05;57.42;;;6.60;99.90;;;;;;5074789;28;20126;-66
2021/12/28 02:38:07;;;;;;;155.65;61.38;;;6.20;99.90;;;;;;5094181;28;20035;-66
2021/12/28 02:40:35;;;;;;;140.25;60.45;;;6.40;99.90;;;;;;5093839;28;20066;-66
2021/12/28 02:43:03;;;;;;;138.70;57.35;;;6.30;99.90;;;;;;5093678;28;20040;-66
2021/12/28 02:45:36;;;;;;;224.48;76.05;;;6.40;99.90;;;;;;5057584;28;20044;-66
2021/12/28 02:48:03;;;;;;;146.77;60.30;;;6.50;99.90;;;;;;5073697;28;20083;-66
2021/12/28 02:50:43;;;;;;;180.38;69.03;;;6.30;99.90;;;;;;5057826;28;20039;-66
2021/12/28 02:53:10;;;;;;;154.23;67.82;;;7.20;99.90;;;;;;5107535;28;20036;-66
2021/12/28 02:55:39;;;;;;;192.25;75.25;;;6.10;99.90;;;;;;5092140;28;20040;-66
2021/12/28 02:58:23;;;;;;;188.35;71.60;;;6.50;99.90;;;;;;5077545;28;20036;-66
2021/12/28 03:00:53;;;;;;;147.02;60.38;;;6.50;99.90;;;;;;5108186;27;20093;-66
2021/12/28 03:03:22;;;;;;;133.50;59.40;;;6.80;99.90;;;;;;5074071;28;20042;-66
2021/12/28 03:05:49;;;;;;;163.27;65.07;;;6.30;99.90;;;;;;5108216;28;20393;-66
2021/12/28 03:08:18;;;;;;;231.25;82.15;;;6.50;99.90;;;;;;5072472;28;20115;-66
2021/12/28 03:10:44;;;;;;;199.95;73.30;;;6.40;99.90;;;;;;5074101;28;20477;-66
2021/12/28 03:13:19;;;;;;;265.65;86.50;;;6.40;99.90;;;;;;5084982;28;20414;-66
2021/12/28 03:15:45;;;;;;;197.95;68.63;;;6.50;99.90;;;;;;5093569;28;20059;-66
2021/12/28 03:18:11;;;;;;;233.35;80.10;;;5.60;99.90;;;;;;5078562;28;20397;-66
2021/12/28 03:20:36;;;;;;;212.70;75.78;;;6.40;99.90;;;;;;5108254;28;20035;-66
2021/12/28 03:23:03;;;;;;;231.80;80.18;;;6.60;99.90;;;;;;5072820;28;20101;-66
2021/12/28 03:25:29;;;;;;;177.05;67.68;;;6.50;99.90;;;;;;5073837;28;20044;-66
2021/12/28 03:27:55;;;;;;;242.50;82.30;;;6.70;99.90;;;;;;5092933;28;20036;-66
2021/12/28 03:30:21;;;;;;;180.13;68.70;;;6.50;99.90;;;;;;5093029;28;20048;-66
2021/12/28 03:32:46;;;;;;;264.00;81.28;;;7.20;99.90;;;;;;5077091;28;20044;-66
2021/12/28 03:35:14;;;;;;;241.80;82.07;;;6.70;99.90;;;;;;5094102;28;20058;-66
2021/12/28 03:37:41;;;;;;;192.43;67.65;;;6.60;99.90;;;;;;5076074;28;20044;-66
2021/12/28 03:40:10;;;;;;;359.08;103.90;;;6.50;99.90;;;;;;5093702;28;20041;-66
2021/12/28 03:42:36;;;;;;;249.20;82.15;;;6.60;99.90;;;;;;5092766;28;20396;-66
2021/12/28 03:45:02;;;;;;;278.85;86.68;;;6.60;99.90;;;;;;5073839;28;20035;-66
2021/12/28 03:47:28;;;;;;;304.00;93.35;;;6.50;99.90;;;;;;5107780;28;20530;-66
2021/12/28 03:49:53;;;;;;;224.60;81.30;;;6.50;99.90;;;;;;5091038;28;20125;-66
2021/12/28 03:52:19;;;;;;;257.38;79.47;;;;;;;;;;5112311;28;20092;-66
2021/12/28 03:54:45;;;;;;;381.20;107.80;;;6.60;99.90;;;;;;5094386;28;20387;-66
2021/12/28 03:57:11;;;;;;;401.73;107.47;;;6.60;99.90;;;;;;5089296;28;20032;-66
2021/12/28 03:59:38;;;;;;;328.80;100.63;;;6.70;99.90;;;;;;5093099;28;20052;-66
2021/12/28 04:02:04;;;;;;;300.52;91.55;;;6.60;99.90;;;;;;5093750;28;20044;-66
2021/12/28 04:04:30;;;;;;;419.20;122.80;;;6.50;99.90;;;;;;5092825;28;20039;-66
2021/12/28 04:06:55;;;;;;;351.42;99.35;;;6.60;99.90;;;;;;5111128;28;20027;-66
2021/12/28 04:09:56;;;;;;;258.92;81.35;;;;;;;;;;5093659;28;20540;-66
2021/12/28 04:12:08;;;;;;;248.48;79.88;;;6.20;99.90;;;;;;5092413;28;20130;-66
2021/12/28 04:14:33;;;;;;;342.33;99.88;;;6.30;99.90;;;;;;5076913;28;20043;-66
2021/12/28 04:16:59;;;;;;;343.42;107.40;;;6.50;99.90;;;;;;5127698;28;20047;-67
2021/12/28 04:19:24;;;;;;;290.88;91.25;;;6.40;99.90;;;;;;5128444;27;20096;-66
2021/12/28 04:21:50;;;;;;;252.32;80.80;;;6.20;99.90;;;;;;5096321;28;20039;-66
2021/12/28 04:24:16;;;;;;;270.02;81.88;;;6.30;99.90;;;;;;5096823;28;20050;-66
2021/12/28 04:26:41;;;;;;;289.27;92.57;;;6.10;99.90;;;;;;5096552;28;20078;-66
2021/12/28 04:29:07;;;;;;;224.15;79.72;;;6.30;99.90;;;;;;5096857;28;20036;-66
2021/12/28 04:31:33;;;;;;;299.67;89.05;;;6.40;99.90;;;;;;5068178;28;20063;-66
2021/12/28 04:33:59;;;;;;;229.95;77.78;;;6.30;99.90;;;;;;5076676;28;20048;-66
2021/12/28 04:36:24;;;;;;;296.50;93.18;;;6.30;99.90;;;;;;5093317;28;20039;-66
2021/12/28 04:38:50;;;;;;;376.80;107.00;;;6.30;99.90;;;;;;5129846;27;20050;-66
2021/12/28 04:41:16;;;;;;;321.73;92.32;;;6.10;99.90;;;;;;5131039;27;20043;-66
2021/12/28 04:43:42;;;;;;;402.40;109.78;;;6.30;99.90;;;;;;5097270;28;20088;-66
2021/12/28 04:46:08;;;;;;;453.70;123.88;;;6.30;99.90;;;;;;5096226;28;20044;-66
2021/12/28 04:48:34;;;;;;;335.65;95.95;;;6.40;99.90;;;;;;5096695;28;20047;-66
2021/12/28 04:51:01;;;;;;;223.05;76.43;;;6.90;99.90;;;;;;5079933;28;20047;-67
2021/12/28 04:53:26;;;;;;;275.55;86.82;;;6.10;99.90;;;;;;5093271;28;20476;-67
2021/12/28 04:55:52;;;;;;;318.50;92.45;;;6.40;99.90;;;;;;5096477;28;20028;-67
2021/12/28 04:58:19;;;;;;;179.60;63.92;;;6.50;99.90;;;;;;5096578;28;20036;-66
2021/12/28 05:00:46;;;;;;;203.50;74.07;;;6.30;99.90;;;;;;5095711;28;20050;-67
2021/12/28 05:03:13;;;;;;;271.48;86.10;;;6.60;99.90;;;;;;5096587;28;20441;-67
2021/12/28 05:05:44;;;;;;;296.90;86.80;;;6.60;99.90;;;;;;5096441;28;20054;-67
2021/12/28 05:08:12;;;;;;;259.67;80.45;;;6.40;99.90;;;;;;5077710;28;20042;-67
2021/12/28 05:10:38;;;;;;;328.90;95.07;;;6.50;99.90;;;;;;5096642;28;20051;-67
2021/12/28 05:13:04;;;;;;;247.25;80.43;;;6.40;99.90;;;;;;5096008;28;20503;-67
2021/12/28 05:15:30;;;;;;;185.40;69.47;;;6.40;99.90;;;;;;5095367;28;20093;-67
2021/12/28 05:17:55;;;;;;;169.38;59.78;;;6.60;99.90;;;;;;5096243;28;20055;-67
2021/12/28 05:20:21;;;;;;;179.07;65.00;;;6.30;99.90;;;;;;5095986;28;20054;-66
2021/12/28 05:22:47;;;;;;;150.50;59.35;;;6.50;99.90;;;;;;5079962;28;20035;-66
2021/12/28 05:25:12;;;;;;;193.55;68.38;;;6.40;99.90;;;;;;5096294;28;20032;-67
2021/12/28 05:27:39;;;;;;;186.27;65.43;;;6.60;99.90;;;;;;5096063;28;20040;-67
2021/12/28 05:30:07;;;;;;;169.20;60.83;;;6.40;99.90;;;;;;5094641;28;20148;-67
2021/12/28 05:32:33;;;;;;;160.32;59.97;;;6.40;99.90;;;;;;5095662;28;20130;-67
2021/12/28 05:34:58;;;;;;;163.38;59.33;;;6.40;99.90;;;;;;5095119;28;20071;-67
2021/12/28 05:37:24;;;;;;;150.90;55.67;;;6.40;99.90;;;;;;5094780;28;20050;-67
2021/12/28 05:39:50;;;;;;;155.98;59.08;;;6.50;99.90;;;;;;5096024;28;20044;-67
2021/12/28 05:42:15;;;;;;;139.48;57.35;;;6.40;99.90;;;;;;5078411;28;20072;-66
2021/12/28 05:44:41;;;;;;;197.45;69.80;;;6.40;99.90;;;;;;5093706;28;20048;-66
2021/12/28 05:47:07;;;;;;;146.10;58.72;;;6.30;99.90;;;;;;5093331;28;20114;-67
2021/12/28 05:49:33;;;;;;;142.70;58.30;;;6.30;99.90;;;;;;5091586;28;20036;-67
2021/12/28 05:51:58;;;;;;;145.95;57.05;;;6.40;99.90;;;;;;5080060;28;20071;-67
2021/12/28 05:54:24;;;;;;;120.07;55.17;;;6.40;99.90;;;;;;5095472;28;20075;-67
2021/12/28 05:56:50;;;;;;;146.65;58.60;;;;;;;;;;5068158;28;20506;-67
2021/12/28 05:59:16;;;;;;;123.07;57.42;;;6.30;99.90;;;;;;5095141;28;20514;-67
2021/12/28 06:01:41;;;;;;;135.15;55.17;;;6.30;99.90;;;;;;5094852;28;20040;-67
2021/12/28 06:04:07;;;;;;;135.70;53.80;;;6.40;99.90;;;;;;5094580;28;20055;-66
2021/12/28 06:06:33;;;;;;;139.48;56.42;;;;;;;;;;5104631;28;20111;-66
2021/12/28 06:08:59;;;;;;;119.32;50.80;;;6.30;99.90;;;;;;5092979;28;20078;-66
2021/12/28 06:11:25;;;;;;;119.45;53.05;;;6.60;99.90;;;;;;5077895;28;20445;-66
2021/12/28 06:13:50;;;;;;;127.82;54.58;;;6.40;99.90;;;;;;5094905;28;20039;-67
2021/12/28 06:16:16;;;;;;;111.72;51.28;;;6.40;99.90;;;;;;5113430;28;20074;-67
2021/12/28 06:18:42;;;;;;;117.75;51.15;;;6.40;99.90;;;;;;5094326;28;20130;-67
2021/12/28 06:21:08;;;;;;;121.05;54.80;;;6.40;99.90;;;;;;5094189;28;20182;-67
2021/12/28 06:23:34;;;;;;;126.25;53.00;;;6.50;99.90;;;;;;5094621;28;20036;-66
2021/12/28 06:26:00;;;;;;;111.55;48.65;;;;;;;;;;5077099;28;20084;-66
2021/12/28 06:28:26;;;;;;;104.35;50.40;;;6.40;99.90;;;;;;5094573;28;20071;-66
2021/12/28 06:30:53;;;;;;;100.85;48.35;;;6.40;99.90;;;;;;5094626;28;20044;-66
2021/12/28 06:33:20;;;;;;;97.70;48.08;;;6.10;99.90;;;;;;5094012;28;20035;-66
2021/12/28 06:35:46;;;;;;;95.93;45.83;;;;;;;;;;5093301;28;20036;-66
2021/12/28 06:38:12;;;;;;;110.40;49.22;;;6.60;99.90;;;;;;5093511;28;20504;-66
2021/12/28 06:40:37;;;;;;;106.65;49.22;;;6.70;99.90;;;;;;5094087;28;20039;-67
2021/12/28 06:43:03;;;;;;;97.78;47.35;;;6.50;99.90;;;;;;5111405;28;20474;-67
2021/12/28 06:45:29;;;;;;;95.68;46.70;;;;;;;;;;5110980;28;20138;-66
2021/12/28 06:47:55;;;;;;;83.30;41.92;;;6.50;99.90;;;;;;5094577;28;20175;-66
2021/12/28 06:50:20;;;;;;;96.38;45.63;;;6.50;99.90;;;;;;5094038;28;20064;-66
2021/12/28 06:52:46;;;;;;;97.85;46.78;;;6.60;99.90;;;;;;5093280;28;20104;-66
2021/12/28 06:55:11;;;;;;;93.50;44.03;;;6.50;99.90;;;;;;5094279;28;20056;-66
2021/12/28 06:57:38;;;;;;;88.22;44.67;;;6.60;99.90;;;;;;5094073;28;20042;-66
2021/12/28 07:00:10;;;;;;;79.18;41.60;;;6.50;99.90;;;;;;5076458;28;20051;-66
2021/12/28 07:02:36;;;;;;;81.07;40.55;;;6.50;99.90;;;;;;5093889;28;20100;-66
2021/12/28 07:05:04;;;;;;;73.15;39.70;;;6.90;99.90;;;;;;5123952;27;20489;-66
2021/12/28 07:07:29;;;;;;;68.95;37.75;;;6.60;99.90;;;;;;5075638;28;20111;-66
2021/12/28 07:09:55;;;;;;;80.20;39.53;;;6.60;99.90;;;;;;5094182;28;20118;-66
2021/12/28 07:12:21;;;;;;;66.13;33.95;;;6.10;99.90;;;;;;5094240;28;20048;-67
2021/12/28 07:14:47;;;;;;;75.10;37.60;;;6.50;99.90;;;;;;5093475;28;20487;-66
2021/12/28 07:17:12;;;;;;;83.38;39.42;;;6.50;99.90;;;;;;5091708;28;20047;-66
2021/12/28 07:19:38;;;;;;;66.20;34.50;;;6.40;99.90;;;;;;5094346;28;20088;-66
2021/12/28 07:22:04;;;;;;;67.75;32.97;;;6.40;99.90;;;;;;5076322;28;20048;-66
2021/12/28 07:24:30;;;;;;;62.97;33.55;;;6.40;99.90;;;;;;5094265;28;20031;-66
2021/12/28 07:26:56;;;;;;;62.05;33.28;;;6.50;99.90;;;;;;5094120;28;20067;-67
2021/12/28 07:29:22;;;;;;;64.38;33.13;;;6.40;99.90;;;;;;5092979;28;20040;-66
2021/12/28 07:31:49;;;;;;;68.13;32.78;;;6.40;99.90;;;;;;5110464;28;20054;-66
2021/12/28 07:34:14;;;;;;;55.80;30.67;;;6.40;99.90;;;;;;5109349;28;20035;-67
2021/12/28 07:36:40;;;;;;;66.30;33.22;;;6.40;99.90;;;;;;5093449;28;20103;-67
2021/12/28 07:39:06;;;;;;;54.50;29.13;;;6.50;99.90;;;;;;5094172;28;20071;-66
2021/12/28 07:41:32;;;;;;;53.40;30.27;;;6.40;99.90;;;;;;5093159;28;20059;-64
2021/12/28 07:43:58;;;;;;;55.40;28.48;;;6.50;99.90;;;;;;5093844;28;20074;-67
2021/12/28 07:46:23;;;;;;;56.35;29.42;;;6.50;99.90;;;;;;5093042;28;20031;-66
2021/12/28 07:48:49;;;;;;;66.47;32.85;;;7.20;99.90;;;;;;5092171;28;20089;-66
2021/12/28 07:51:16;;;;;;;56.92;30.95;;;6.50;99.90;;;;;;5093861;28;20039;-66
2021/12/28 07:53:41;;;;;;;55.65;27.63;;;6.40;99.90;;;;;;5093374;28;20050;-65
2021/12/28 07:56:07;;;;;;;50.15;27.55;;;6.40;99.90;;;;;;5075897;28;20032;-66
2021/12/28 07:58:33;;;;;;;50.05;25.75;;;6.40;99.90;;;;;;5097792;28;20046;-67
2021/12/28 08:00:59;;;;;;;48.58;26.55;;;6.50;99.90;;;;;;5097587;28;20046;-67
2021/12/28 08:03:25;;;;;;;42.83;23.65;;;6.50;99.90;;;;;;5079743;28;20035;-67
2021/12/28 08:05:52;;;;;;;49.42;26.17;;;6.50;99.90;;;;;;5096361;28;20062;-69
2021/12/28 08:08:18;;;;;;;52.42;26.30;;;6.50;99.90;;;;;;5094956;28;20058;-69
2021/12/28 08:10:44;;;;;;;45.17;24.67;;;6.50;99.90;;;;;;5077955;28;20044;-72
2021/12/28 08:13:10;;;;;;;45.95;24.55;;;6.30;99.90;;;;;;5094915;28;20130;-68
2021/12/28 08:15:36;;;;;;;40.65;22.10;;;6.50;99.90;;;;;;5095228;28;20465;-68
2021/12/28 08:18:04;;;;;;;44.55;23.02;;;6.50;99.90;;;;;;5077297;28;20052;-67
2021/12/28 08:20:30;;;;;;;45.80;24.00;;;6.50;99.90;;;;;;5078338;28;20075;-68
2021/12/28 08:22:57;;;;;;;43.72;23.80;;;;;;;;;;5094892;28;20504;-68
2021/12/28 08:25:24;;;;;;;36.55;20.30;;;;;;;;;;5090516;28;20051;-69
2021/12/28 08:27:50;;;;;;;46.10;22.55;;;6.60;99.90;;;;;;5087984;28;20044;-69
2021/12/28 08:30:17;;;;;;;35.80;20.92;;;6.70;99.90;;;;;;5077190;28;20056;-69
2021/12/28 08:32:43;;;;;;;38.97;20.77;;;6.50;99.90;;;;;;5094104;28;20055;-69
2021/12/28 08:35:10;;;;;;;36.83;19.02;;;6.40;99.90;;;;;;5093898;28;20043;-69
2021/12/28 08:37:35;;;;;;;39.50;19.48;;;6.90;99.90;;;;;;5094229;28;20051;-69
2021/12/28 08:40:02;;;;;;;39.42;19.58;;;6.80;99.90;;;;;;5093994;28;20050;-69
2021/12/28 08:42:28;;;;;;;37.42;19.08;;;7.00;99.90;;;;;;5070436;28;20035;-69
2021/12/28 08:44:53;;;;;;;43.25;19.38;;;6.90;99.90;;;;;;5091601;28;20036;-69
2021/12/28 08:47:22;;;;;;;33.78;17.77;;;6.90;99.90;;;;;;5094199;28;20035;-69
2021/12/28 08:49:48;;;;;;;36.97;18.92;;;6.70;99.90;;;;;;5077488;28;20047;-69
2021/12/28 08:52:14;;;;;;;34.72;18.23;;;6.90;99.90;;;;;;5092757;28;20108;-69
2021/12/28 08:54:39;;;;;;;36.63;18.77;;;6.90;99.90;;;;;;5077734;28;20407;-69
2021/12/28 08:57:05;;;;;;;38.47;19.73;;;7.00;99.90;;;;;;5093948;28;20925;-69
2021/12/28 08:59:31;;;;;;;38.58;18.83;;;6.80;99.90;;;;;;5091760;28;20035;-67
2021/12/28 09:01:56;;;;;;;34.63;19.45;;;7.00;99.90;;;;;;5093713;28;20040;-67
2021/12/28 09:04:23;;;;;;;37.63;17.75;;;6.90;99.90;;;;;;5093569;28;20059;-66
2021/12/28 09:06:49;;;;;;;42.22;19.05;;;7.00;99.90;;;;;;5091506;28;20411;-67
2021/12/28 09:09:14;;;;;;;32.90;17.08;;;6.90;99.90;;;;;;5094117;28;20047;-67
2021/12/28 09:11:41;;;;;;;45.42;18.75;;;7.20;99.90;;;;;;5075492;28;20035;-67
2021/12/28 09:14:07;;;;;;;32.55;18.02;;;7.20;99.90;;;;;;5076506;28;20061;-67
2021/12/28 09:16:32;;;;;;;36.17;18.95;;;7.40;99.90;;;;;;5127889;27;20484;-66
2021/12/28 09:18:58;;;;;;;43.58;19.35;;;8.00;99.90;;;;;;5093450;28;20039;-67
2021/12/28 09:21:24;;;;;;;33.42;18.15;;;7.10;99.90;;;;;;5092903;28;20408;-66
2021/12/28 09:23:49;;;;;;;33.38;18.90;;;7.10;99.90;;;;;;5093913;28;20074;-67
2021/12/28 09:26:16;;;;;;;34.22;17.75;;;;;;;;;;5089774;28;20037;-66
2021/12/28 09:28:45;;;;;;;29.70;17.75;;;;;;;;;;5090521;28;20373;-67
2021/12/28 09:31:14;;;;;;;35.63;17.05;;;;;;;;;;5092644;28;20044;-66
2021/12/28 09:33:44;;;;;;;34.08;16.65;;;;;;;;;;5093700;28;20429;-67
2021/12/28 09:36:14;;;;;;;37.63;19.42;;;7.30;99.90;;;;;;5092824;28;20044;-66
2021/12/28 09:38:41;;;;;;;32.90;17.98;;;;;;;;;;5073429;28;20405;-66
2021/12/28 09:41:08;;;;;;;30.40;17.63;;;;;;;;;;5073124;28;20039;-66
2021/12/28 09:43:33;;;;;;;39.58;20.52;;;7.40;99.90;;;;;;5075901;28;20078;-66
2021/12/28 09:45:59;;;;;;;37.90;19.42;;;7.20;99.90;;;;;;5093737;28;20074;-66
2021/12/28 09:48:25;;;;;;;33.33;17.17;;;7.60;99.90;;;;;;5095755;27;20473;-66
2021/12/28 09:50:50;;;;;;;32.67;17.58;;;7.60;99.90;;;;;;5091809;28;20040;-66
2021/12/28 09:53:38;;;;;;;27.60;17.02;;;7.70;99.90;;;;;;5089614;28;20051;-67
2021/12/28 09:56:05;;;;;;;31.95;17.48;;;7.90;99.90;;;;;;5081190;28;20054;-66
2021/12/28 09:58:39;;;;;;;34.78;18.02;;;7.50;99.90;;;;;;5095005;28;20366;-66
2021/12/28 10:01:06;;;;;;;30.90;17.60;;;7.60;99.90;;;;;;5077627;28;20040;-66
2021/12/28 10:03:33;;;;;;;31.27;18.17;;;7.70;99.90;;;;;;5094121;28;20047;-66
2021/12/28 10:05:59;;;;;;;33.17;18.48;;;7.50;99.90;;;;;;5094318;28;20031;-66
2021/12/28 10:08:25;;;;;;;33.42;16.45;;;7.60;99.90;;;;;;5095355;28;20040;-64
2021/12/28 10:10:56;;;;;;;26.17;16.73;;;7.80;99.90;;;;;;5089102;28;20028;-63
2021/12/28 10:13:26;;;;;;;30.00;17.65;;;7.60;99.90;;;;;;5090781;28;20035;-66
2021/12/28 10:15:54;;;;;;;31.85;18.02;;;7.60;99.90;;;;;;5095098;28;20369;-66
2021/12/28 10:18:20;;;;;;;30.23;17.92;;;7.60;99.90;;;;;;5093850;28;20400;-66
2021/12/28 10:20:53;;;;;;;34.13;20.38;;;7.60;99.90;;;;;;5095166;28;20365;-67
2021/12/28 10:23:26;;;;;;;36.83;18.77;;;7.70;99.90;;;;;;5094335;28;20476;-67
2021/12/28 10:26:08;;;;;;;33.35;18.80;;;7.80;99.90;;;;;;5094723;28;20499;-67
2021/12/28 10:28:37;;;;;;;31.55;16.75;;;7.70;99.90;;;;;;5113232;28;20031;-67
2021/12/28 10:31:10;;;;;;;34.83;18.95;;;7.50;99.90;;;;;;5093904;28;20135;-67
2021/12/28 10:33:38;;;;;;;34.38;19.52;;;7.60;99.90;;;;;;5094778;28;20043;-67
2021/12/28 10:36:10;;;;;;;39.22;20.65;;;7.70;99.90;;;;;;5094924;28;20543;-67
2021/12/28 10:38:39;;;;;;;35.55;21.05;;;7.50;99.90;;;;;;5094378;28;20035;-66
2021/12/28 10:41:14;;;;;;;40.78;20.63;;;7.70;99.90;;;;;;5094481;28;20075;-66
2021/12/28 10:43:45;;;;;;;32.08;20.70;;;7.70;99.90;;;;;;5078159;28;20055;-66
2021/12/28 10:46:23;;;;;;;38.13;21.23;;;7.70;99.90;;;;;;5094074;28;20484;-67
2021/12/28 10:48:52;;;;;;;39.33;21.65;;;7.60;99.90;;;;;;5094803;28;20039;-66
2021/12/28 10:51:29;;;;;;;37.53;20.40;;;7.70;99.90;;;;;;5094460;28;20100;-66
2021/12/28 10:56:54;;;;;;;33.63;19.23;;;7.60;99.90;;;;;;5094809;28;20052;-66
2021/12/28 10:59:26;;;;;;;27.70;17.95;;;7.70;99.90;;;;;;5071145;28;20049;-67
2021/12/28 11:01:52;;;;;;;33.22;18.85;;;7.60;99.90;;;;;;5094562;28;20059;-67
2021/12/28 11:04:19;;;;;;;32.97;19.38;;;7.70;99.90;;;;;;5094399;28;20048;-67
2021/12/28 11:06:50;;;;;;;31.00;19.05;;;7.70;99.90;;;;;;5094243;28;20108;-66
2021/12/28 11:09:22;;;;;;;33.35;18.60;;;7.60;99.90;;;;;;5094391;28;20050;-66
2021/12/28 11:11:49;;;;;;;29.02;17.88;;;7.60;99.90;;;;;;5094107;28;20047;-67
2021/12/28 11:14:23;;;;;;;27.88;17.15;;;7.70;99.90;;;;;;5093330;28;20122;-67
2021/12/28 11:16:54;;;;;;;26.40;17.13;;;7.70;99.90;;;;;;5094524;28;20043;-67
2021/12/28 11:19:30;;;;;;;28.40;17.27;;;7.70;99.90;;;;;;5094280;28;20556;-66
2021/12/28 11:22:02;;;;;;;28.77;18.10;;;7.70;99.90;;;;;;5094025;28;20043;-67
2021/12/28 11:24:33;;;;;;;24.45;17.00;;;7.80;99.90;;;;;;5094395;28;20039;-67
2021/12/28 11:26:59;;;;;;;25.30;18.55;;;7.70;99.90;;;;;;5093385;28;20054;-67
2021/12/28 11:29:31;;;;;;;24.08;16.67;;;9.30;99.90;;;;;;5096054;28;20043;-67
2021/12/28 11:32:01;;;;;;;23.75;15.90;;;7.90;99.90;;;;;;5098318;28;20050;-67
2021/12/28 11:34:30;;;;;;;24.77;16.45;;;7.70;99.90;;;;;;5080666;28;20396;-67
2021/12/28 11:37:20;;;;;;;22.85;15.13;;;7.90;99.90;;;;;;5098239;28;20411;-67
2021/12/28 11:39:55;;;;;;;21.65;14.80;;;7.80;99.90;;;;;;5098030;28;20047;-67
2021/12/28 11:42:21;;;;;;;;;;;7.90;99.90;;;;;;5098091;28;20043;-67
2021/12/28 11:44:47;;;;;;;22.05;13.95;;;8.00;99.90;;;;;;5097896;28;19974;-67
2021/12/28 11:50:54;;;;;;;18.67;13.23;;;8.30;99.90;;;;;;5095800;28;20050;-67
2021/12/28 11:53:21;;;;;;;21.38;13.52;;;;;;;;;;5076252;28;20040;-68
2021/12/28 11:55:46;;;;;;;19.45;12.23;;;8.00;99.90;;;;;;5076492;28;20036;-68
2021/12/28 11:58:12;;;;;;;20.48;12.95;;;8.10;99.90;;;;;;5094360;28;20044;-68
2021/12/28 12:00:44;;;;;;;22.30;13.23;;;8.60;99.90;;;;;;5076780;28;20048;-67
2021/12/28 12:03:33;;;;;;;18.60;10.65;;;8.10;99.90;;;;;;5118230;27;20036;-67
2021/12/28 12:05:59;;;;;;;16.50;11.13;;;8.00;99.90;;;;;;5062800;28;20128;-67
2021/12/28 12:08:25;;;;;;;17.38;11.23;;;8.20;99.90;;;;;;5076535;28;21525;-67
2021/12/28 12:11:01;;;;;;;16.35;11.80;;;8.10;99.90;;;;;;5064074;28;20142;-69
2021/12/28 12:13:29;;;;;;;15.05;10.15;;;8.10;99.90;;;;;;5088959;28;20044;-69
2021/12/28 12:16:03;;;;;;;18.52;11.75;;;8.30;99.90;;;;;;5093596;28;20492;-69
2021/12/28 12:18:32;;;;;;;16.75;10.52;;;8.20;99.90;;;;;;5096923;28;20039;-69
2021/12/28 12:21:05;;;;;;;18.67;11.82;;;8.30;99.90;;;;;;5097174;28;20065;-69
2021/12/28 12:23:41;;;;;;;17.65;10.80;;;8.10;99.90;;;;;;5089408;28;20044;-69
2021/12/28 12:26:09;;;;;;;15.40;10.75;;;8.20;99.90;;;;;;5093390;28;20055;-69
2021/12/28 12:28:51;;;;;;;15.85;10.93;;;8.20;99.90;;;;;;5076982;28;20104;-69
2021/12/28 12:31:33;;;;;;;17.13;10.82;;;8.10;99.90;;;;;;5076719;28;20489;-69
2021/12/28 12:34:01;;;;;;;17.40;10.98;;;8.10;99.90;;;;;;5076755;28;20040;-69
2021/12/28 12:36:41;;;;;;;19.38;11.50;;;8.10;99.90;;;;;;5077510;28;20050;-69
2021/12/28 12:39:08;;;;;;;19.05;12.02;;;8.60;99.90;;;;;;5072654;28;20097;-69
2021/12/28 12:41:44;;;;;;;18.52;11.55;;;8.20;99.90;;;;;;5092476;28;20051;-70
2021/12/28 12:44:13;;;;;;;23.13;14.00;;;8.20;99.90;;;;;;5074647;28;20051;-70
2021/12/28 12:46:42;;;;;;;20.35;13.48;;;8.60;99.90;;;;;;5087020;28;20464;-69
2021/12/28 12:49:09;;;;;;;19.15;11.60;;;8.70;99.90;;;;;;5074517;28;20034;-70
2021/12/28 12:51:51;;;;;;;17.85;12.80;;;8.20;99.90;;;;;;5072785;28;20052;-69
2021/12/28 12:54:41;;;;;;;17.38;11.40;;;8.30;99.90;;;;;;5075299;28;20051;-70
2021/12/28 12:57:09;;;;;;;17.35;11.90;;;8.10;99.90;;;;;;5076502;28;20066;-69
2021/12/28 12:59:44;;;;;;;17.67;11.75;;;9.20;99.90;;;;;;5091500;28;20518;-70
2021/12/28 13:02:14;;;;;;;19.98;13.07;;;8.20;99.90;;;;;;5092913;28;20039;-69